Time;durP1;ratioP1;P1;durP2;ratioP2;P2;SDS_P1;SDS_P2;PMS_P1;PMS_P2;Temp;Humidity;BMP_temperature;BMP_pressure;BME280_temperature;BME280_humidity;BME280_pressure;Samples;Min_cycle;Max_cycle;Signal;HPM_P1;HPM_P2
2022/03/16 00:00:10;;;;;;;16.65;13.30;;;;;;;4.28;85.53;102276.78;5053855;28;20044;-90
2022/03/16 00:02:36;;;;;;;17.05;13.43;;;;;;;4.21;85.63;102271.09;5037550;28;20032;-90
2022/03/16 00:05:02;;;;;;;16.55;13.55;;;;;;;4.22;85.63;102271.94;5037539;28;20131;-90
2022/03/16 00:07:37;;;;;;;18.45;14.27;;;;;;;4.21;85.40;102281.84;5054067;28;20054;-90
2022/03/16 00:10:07;;;;;;;17.90;14.30;;;;;;;4.14;85.30;102278.00;5037445;28;20087;-90
2022/03/16 00:12:33;;;;;;;16.70;13.95;;;;;;;4.14;85.57;102286.06;5054034;28;20024;-90
2022/03/16 00:15:02;;;;;;;17.60;14.35;;;;;;;4.05;85.36;102281.50;5036629;28;20025;-90
2022/03/16 00:17:30;;;;;;;17.63;14.30;;;;;;;4.09;86.09;102280.25;5055017;28;20028;-90
2022/03/16 00:19:56;;;;;;;17.73;13.85;;;;;;;4.05;85.69;102294.94;5054014;28;20457;-90
2022/03/16 00:22:23;;;;;;;16.35;13.20;;;;;;;3.97;85.72;102279.53;5054891;28;20029;-90
2022/03/16 00:24:49;;;;;;;17.00;14.10;;;;;;;3.94;85.64;102284.28;5055772;28;20040;-91
2022/03/16 00:27:17;;;;;;;17.38;13.15;;;;;;;3.92;86.23;102281.75;5037346;28;20029;-91
2022/03/16 00:29:43;;;;;;;18.42;14.60;;;;;;;3.95;85.84;102291.38;5039865;28;20041;-90
2022/03/16 00:32:09;;;;;;;19.95;15.38;;;;;;;3.91;86.01;102288.09;5058056;28;20080;-91
2022/03/16 00:34:37;;;;;;;19.83;15.50;;;;;;;3.91;87.04;102289.94;5041844;28;20393;-90
2022/03/16 00:37:02;;;;;;;19.42;15.60;;;;;;;3.97;86.92;102292.06;5026891;28;20033;-90
2022/03/16 00:39:28;;;;;;;20.13;16.90;;;;;;;4.00;87.48;102287.31;5058164;28;20525;-90
2022/03/16 00:41:55;;;;;;;21.10;16.70;;;;;;;4.03;87.99;102280.78;5042002;28;20033;-91
2022/03/16 00:44:23;;;;;;;19.13;15.85;;;;;;;4.00;88.11;102278.38;5059213;28;20037;-90
2022/03/16 00:46:51;;;;;;;19.42;15.50;;;;;;;3.95;88.33;102277.94;5039954;28;20025;-90
2022/03/16 00:49:17;;;;;;;18.48;15.10;;;;;;;3.93;88.43;102269.19;5036729;28;20056;-91
2022/03/16 00:51:45;;;;;;;18.92;15.10;;;;;;;3.94;88.34;102278.94;5036263;28;20028;-90
2022/03/16 00:54:10;;;;;;;18.40;14.52;;;;;;;3.96;88.99;102279.66;5036581;28;20076;-91
2022/03/16 00:56:37;;;;;;;17.88;14.60;;;;;;;3.90;88.82;102277.50;5036536;28;20422;-90
2022/03/16 00:59:02;;;;;;;18.75;14.68;;;;;;;3.91;89.11;102279.22;5054525;28;20036;-90
2022/03/16 01:01:28;;;;;;;18.27;14.73;;;;;;;3.98;89.07;102289.25;5053247;28;20408;-90
2022/03/16 01:03:55;;;;;;;17.38;14.55;;;;;;;3.94;89.40;102278.94;5036818;28;20090;-90
2022/03/16 01:06:26;;;;;;;17.23;13.95;;;;;;;3.88;88.99;102272.25;5053190;28;20037;-90
2022/03/16 01:08:52;;;;;;;18.23;14.80;;;;;;;3.92;89.88;102283.59;5053313;28;20041;-90
2022/03/16 01:11:17;;;;;;;19.08;15.05;;;;;;;3.88;89.43;102274.09;5036958;28;20043;-90
2022/03/16 01:13:43;;;;;;;16.85;14.35;;;;;;;3.86;89.80;102260.81;5052670;28;20449;-90
2022/03/16 01:16:09;;;;;;;17.45;14.30;;;;;;;3.84;89.40;102273.53;5052967;28;20043;-90
2022/03/16 01:18:34;;;;;;;17.73;14.38;;;;;;;3.81;89.42;102260.38;5052579;28;20037;-90
2022/03/16 01:21:00;;;;;;;20.23;16.20;;;;;;;3.83;89.07;102269.16;5036447;28;20063;-90
2022/03/16 01:23:25;;;;;;;18.88;15.65;;;;;;;3.93;88.88;102278.09;5053822;28;20473;-91
2022/03/16 01:25:54;;;;;;;20.63;16.02;;;;;;;3.88;88.70;102264.22;5036007;28;20029;-90
2022/03/16 01:28:19;;;;;;;19.95;16.55;;;;;;;3.90;89.47;102258.69;5053606;28;20037;-90
2022/03/16 01:30:45;;;;;;;19.50;16.20;;;;;;;3.94;88.69;102265.50;5020741;28;20166;-90
2022/03/16 01:33:11;;;;;;;20.20;15.55;;;;;;;3.92;88.71;102262.94;5053836;28;20117;-90
2022/03/16 01:35:36;;;;;;;21.08;16.52;;;;;;;3.94;89.00;102257.44;5036676;28;20477;-90
2022/03/16 01:38:02;;;;;;;19.27;15.65;;;;;;;3.96;89.02;102263.53;5036201;28;20128;-90
2022/03/16 01:40:27;;;;;;;20.05;16.10;;;;;;;3.99;87.98;102257.91;5053574;28;20116;-90
2022/03/16 01:42:55;;;;;;;20.33;16.23;;;;;;;4.00;88.39;102263.13;5035652;28;20047;-90
2022/03/16 01:45:23;;;;;;;19.50;15.88;;;;;;;3.94;88.99;102241.34;5052560;28;20036;-90
2022/03/16 01:47:52;;;;;;;18.00;14.38;;;;;;;3.98;89.27;102250.81;5035681;28;20124;-90
2022/03/16 01:50:19;;;;;;;18.80;14.88;;;;;;;3.85;89.43;102232.25;5016261;28;20062;-90
2022/03/16 01:52:45;;;;;;;16.75;13.57;;;;;;;3.87;89.32;102241.03;5048879;28;20025;-90
2022/03/16 01:55:11;;;;;;;18.67;14.93;;;;;;;3.83;88.40;102232.41;5049432;28;20032;-90
2022/03/16 01:57:48;;;;;;;20.08;16.25;;;;;;;3.77;88.80;102230.25;5048901;28;20022;-90
2022/03/16 02:00:14;;;;;;;20.13;15.82;;;;;;;3.77;88.17;102224.91;5049922;28;20041;-90
2022/03/16 02:02:40;;;;;;;18.10;15.05;;;;;;;3.74;88.81;102229.72;5033316;28;20030;-90
2022/03/16 02:05:06;;;;;;;19.40;15.73;;;;;;;3.70;89.77;102223.75;5033045;28;20483;-90
2022/03/16 02:07:33;;;;;;;19.80;16.20;;;;;;;3.70;89.36;102215.69;5033573;28;20065;-90
2022/03/16 02:10:00;;;;;;;19.20;15.07;;;;;;;3.72;88.86;102219.09;5032375;28;20037;-90
2022/03/16 02:12:26;;;;;;;19.02;15.23;;;;;;;3.73;89.26;102218.09;5034240;28;20040;-90
2022/03/16 02:14:51;;;;;;;17.30;14.48;;;;;;;3.74;89.41;102211.75;5032583;28;20128;-89
2022/03/16 02:17:17;;;;;;;17.70;14.25;;;;;;;3.69;89.03;102205.94;5051775;28;20040;-90
2022/03/16 02:19:43;;;;;;;17.85;14.23;;;;;;;3.72;89.84;102221.78;5052782;28;20037;-90
2022/03/16 02:22:13;;;;;;;18.27;14.32;;;;;;;3.65;90.32;102215.25;5052120;28;20465;-90
2022/03/16 02:24:39;;;;;;;17.38;13.98;;;;;;;3.73;89.08;102222.63;5035648;28;20397;-90
2022/03/16 02:27:05;;;;;;;17.50;13.65;;;;;;;3.73;90.29;102228.00;5037727;28;20037;-90
2022/03/16 02:29:34;;;;;;;17.50;14.20;;;;;;;3.67;90.76;102207.91;5052560;28;20453;-90
2022/03/16 02:32:00;;;;;;;18.63;15.82;;;;;;;3.73;88.98;102228.84;5052718;28;20037;-90
2022/03/16 02:34:25;;;;;;;18.58;15.10;;;;;;;3.71;88.80;102225.44;5052253;28;20060;-90
2022/03/16 02:36:51;;;;;;;18.60;15.18;;;;;;;3.62;88.85;102221.75;5036531;28;20111;-90
2022/03/16 02:39:16;;;;;;;16.40;13.77;;;;;;;3.66;89.97;102225.88;5019021;28;20363;-90
2022/03/16 02:41:47;;;;;;;18.63;14.70;;;;;;;3.64;89.82;102227.81;5035339;28;20045;-89
2022/03/16 02:44:12;;;;;;;18.90;15.10;;;;;;;3.60;89.23;102221.03;5035660;28;20033;-90
2022/03/16 02:46:40;;;;;;;17.70;14.23;;;;;;;3.56;89.42;102208.88;5051816;28;20120;-90
2022/03/16 02:49:06;;;;;;;18.15;14.65;;;;;;;3.62;88.93;102220.91;5035211;28;20053;-90
2022/03/16 02:51:31;;;;;;;18.20;15.43;;;;;;;3.54;90.21;102212.66;5051650;28;20389;-90
2022/03/16 02:53:57;;;;;;;18.75;15.45;;;;;;;3.53;89.74;102201.09;5035306;28;20029;-90
2022/03/16 02:56:27;;;;;;;18.50;14.63;;;;;;;3.49;89.86;102196.97;5034683;28;20045;-90
2022/03/16 02:58:52;;;;;;;17.35;13.95;;;;;;;3.49;89.80;102203.19;5051892;28;20075;-90
2022/03/16 03:01:20;;;;;;;16.38;13.07;;;;;;;3.38;90.21;102189.88;5051504;28;20548;-90
2022/03/16 03:03:46;;;;;;;17.45;13.43;;;;;;;3.40;91.18;102197.81;5035447;28;20029;-90
2022/03/16 03:06:13;;;;;;;18.30;14.50;;;;;;;3.41;89.82;102202.16;5051498;28;20535;-90
2022/03/16 03:08:39;;;;;;;19.80;15.85;;;;;;;3.36;89.49;102197.19;5018727;28;20033;-90
2022/03/16 03:11:04;;;;;;;19.60;15.20;;;;;;;3.33;89.81;102203.69;5034872;28;20404;-90
2022/03/16 03:13:35;;;;;;;18.90;14.75;;;;;;;3.35;91.30;102195.50;5036869;28;20068;-91
2022/03/16 03:16:02;;;;;;;20.30;16.02;;;;;;;3.35;89.91;102195.50;5035437;28;20025;-90
2022/03/16 03:18:28;;;;;;;19.33;16.17;;;;;;;3.31;88.76;102188.72;5034909;28;20087;-91
2022/03/16 03:20:53;;;;;;;18.77;15.13;;;;;;;3.32;90.99;102204.69;5051446;28;20462;-90
2022/03/16 03:23:21;;;;;;;18.05;14.90;;;;;;;3.23;91.24;102200.09;5035947;28;20057;-90
2022/03/16 03:25:47;;;;;;;17.08;13.82;;;;;;;3.22;92.35;102200.25;5018466;28;20033;-90
2022/03/16 03:28:14;;;;;;;18.75;15.05;;;;;;;3.31;92.18;102212.88;5033744;28;20035;-91
2022/03/16 03:30:43;;;;;;;17.13;14.25;;;;;;;3.22;91.00;102200.25;5034519;28;20025;-91
2022/03/16 03:33:14;;;;;;;17.73;14.55;;;;;;;3.24;91.28;102204.50;5034763;28;20128;-90
2022/03/16 03:35:39;;;;;;;17.85;13.90;;;;;;;3.29;92.31;102217.50;5035548;28;20037;-90
2022/03/16 03:38:05;;;;;;;18.45;14.73;;;;;;;3.26;90.66;102202.53;5050943;28;20026;-90
2022/03/16 03:40:30;;;;;;;18.65;15.23;;;;;;;3.25;90.74;102195.47;5034589;28;20029;-90
2022/03/16 03:42:56;;;;;;;20.27;16.17;;;;;;;3.29;90.39;102198.72;5050729;28;20466;-90
2022/03/16 03:45:21;;;;;;;18.67;14.52;;;;;;;3.25;90.72;102198.16;5034622;28;20469;-90
2022/03/16 03:47:49;;;;;;;18.02;15.07;;;;;;;3.31;92.18;102202.13;5050394;28;20036;-90
2022/03/16 03:50:16;;;;;;;18.45;14.38;;;;;;;3.26;90.98;102199.00;5034597;28;20072;-92
2022/03/16 03:52:43;;;;;;;18.45;15.00;;;;;;;3.27;91.19;102192.66;5034080;28;20112;-90
2022/03/16 03:58:07;;;;;;;19.50;15.32;;;;;;;3.28;91.85;102194.38;5013616;28;20456;-90
2022/03/16 04:00:32;;;;;;;18.30;14.82;;;;;;;3.27;92.26;102198.84;5052315;28;20064;-90
2022/03/16 04:03:03;;;;;;;17.67;14.13;;;;;;;3.32;92.22;102210.06;5034102;28;20034;-90
2022/03/16 04:05:29;;;;;;;19.02;15.23;;;;;;;3.25;92.92;102190.09;5034184;28;20026;-90
2022/03/16 04:07:54;;;;;;;18.70;14.98;;;;;;;3.28;91.44;102194.38;5035338;28;20037;-91
2022/03/16 04:10:20;;;;;;;17.83;14.70;;;;;;;3.34;91.40;102202.69;5034513;28;20036;-90
2022/03/16 04:12:49;;;;;;;17.83;14.43;;;;;;;3.25;92.15;102182.06;5034106;28;20393;-90
2022/03/16 04:15:15;;;;;;;18.60;15.40;;;;;;;3.31;92.02;102189.56;5035736;28;20034;-90
2022/03/16 04:17:41;;;;;;;20.45;16.08;;;;;;;3.36;91.92;102196.38;5033871;28;20034;-90
2022/03/16 04:20:09;;;;;;;19.65;15.85;;;;;;;3.34;91.42;102191.97;5034863;28;20030;-90
2022/03/16 04:22:34;;;;;;;18.90;16.02;;;;;;;3.33;92.45;102189.44;5050250;28;20036;-90
2022/03/16 04:25:00;;;;;;;18.55;15.30;;;;;;;3.39;91.88;102199.63;5050711;28;20067;-90
2022/03/16 04:27:29;;;;;;;19.92;15.40;;;;;;;3.32;90.95;102183.22;5033563;28;20549;-90
2022/03/16 04:29:55;;;;;;;20.52;16.98;;;;;;;3.32;93.47;102190.41;5033886;28;20025;-91
2022/03/16 04:32:20;;;;;;;17.50;14.48;;;;;;;3.31;92.96;102188.72;5034917;28;20029;-90
2022/03/16 04:34:46;;;;;;;17.52;14.77;;;;;;;3.36;90.73;102202.56;5034111;28;20128;-91
2022/03/16 04:37:12;;;;;;;18.33;15.02;;;;;;;3.37;91.35;102198.91;5050619;28;20061;-91
2022/03/16 04:39:43;;;;;;;17.60;14.73;;;;;;;3.27;92.10;102182.75;5034353;28;20040;-91
2022/03/16 04:42:08;;;;;;;20.45;16.75;;;;;;;3.33;92.20;102184.06;5050712;28;20037;-89
2022/03/16 04:44:37;;;;;;;20.05;17.00;;;;;;;3.36;91.94;102194.53;5050571;28;20087;-91
2022/03/16 04:47:02;;;;;;;19.45;16.13;;;;;;;3.31;92.28;102188.72;5019978;28;20033;-90
2022/03/16 04:49:28;;;;;;;19.42;16.20;;;;;;;3.34;92.10;102194.66;5051602;28;20412;-90
2022/03/16 04:51:57;;;;;;;19.48;16.23;;;;;;;3.31;92.60;102192.25;5051235;28;20060;-90
2022/03/16 04:54:22;;;;;;;20.33;16.55;;;;;;;3.37;93.40;102204.28;5034799;28;20078;-90
2022/03/16 04:56:48;;;;;;;20.45;17.55;;;;;;;3.37;92.37;102201.59;5049679;28;20124;-90
2022/03/16 04:59:13;;;;;;;21.17;17.60;;;;;;;3.27;93.01;102185.44;5016379;28;20025;-90
2022/03/16 05:01:39;;;;;;;21.20;18.20;;;;;;;3.38;92.26;102197.94;5033050;28;20040;-90
2022/03/16 05:04:05;;;;;;;21.45;18.13;;;;;;;3.30;91.38;102195.06;5032859;28;20032;-90
2022/03/16 05:06:30;;;;;;;21.35;17.80;;;;;;;3.31;92.81;102204.81;5032831;28;20034;-90
2022/03/16 05:08:56;;;;;;;20.73;17.45;;;;;;;3.34;92.70;102199.19;5033840;28;20025;-89
2022/03/16 05:11:24;;;;;;;20.30;18.05;;;;;;;3.31;93.86;102208.34;5049219;28;20477;-90
2022/03/16 05:13:50;;;;;;;20.42;16.83;;;;;;;3.25;93.25;102195.47;5049586;28;20025;-90
2022/03/16 05:16:16;;;;;;;21.92;18.58;;;;;;;3.28;92.68;102195.19;5034191;28;20033;-90
2022/03/16 05:18:44;;;;;;;22.50;18.52;;;;;;;3.27;92.92;102189.97;5016439;28;20041;-90
2022/03/16 05:21:10;;;;;;;22.02;18.48;;;;;;;3.24;93.04;102182.19;5049503;28;20042;-90
2022/03/16 05:23:40;;;;;;;22.10;18.38;;;;;;;3.30;94.05;102192.38;5050053;28;20038;-92
2022/03/16 05:26:06;;;;;;;20.55;16.55;;;;;;;3.25;93.56;102182.06;5033694;28;20075;-93
2022/03/16 05:28:32;;;;;;;20.38;17.15;;;;;;;3.26;94.08;102185.56;5049023;28;20029;-82
2022/03/16 05:30:58;;;;;;;19.70;15.55;;;;;;;3.25;93.16;102187.44;5032667;28;20469;-84
2022/03/16 05:33:24;;;;;;;20.63;16.90;;;;;;;3.26;93.37;102177.53;5032262;28;20060;-83
2022/03/16 05:35:50;;;;;;;17.38;14.85;;;;;;;3.31;92.50;102184.19;5016375;28;20026;-87
2022/03/16 05:38:16;;;;;;;17.48;15.05;;;;;;;3.32;92.48;102185.03;5033754;28;20042;-89
2022/03/16 05:40:43;;;;;;;17.42;14.27;;;;;;;3.33;93.11;102189.44;5032506;28;20030;-90
2022/03/16 05:43:13;;;;;;;19.75;16.40;;;;;;;3.28;93.17;102178.25;5050165;28;20473;-95
2022/03/16 05:45:39;;;;;;;18.90;15.95;;;;;;;3.29;92.98;102185.31;5050600;28;20068;-95
2022/03/16 05:48:05;;;;;;;21.30;18.00;;;;;;;3.28;92.82;102176.41;5033983;28;20060;-94
2022/03/16 05:50:31;;;;;;;20.50;17.35;;;;;;;3.31;93.48;102180.69;5053462;28;20120;-94
2022/03/16 05:52:57;;;;;;;19.60;16.52;;;;;;;3.34;93.20;102193.81;5057823;28;20086;-94
2022/03/16 05:55:23;;;;;;;19.40;16.10;;;;;;;3.30;93.87;102187.84;5058154;28;20036;-94
2022/03/16 05:57:49;;;;;;;19.75;15.65;;;;;;;3.36;93.46;102197.19;5040752;28;20033;-94
2022/03/16 06:00:17;;;;;;;20.58;16.83;;;;;;;3.45;91.27;102200.91;5041255;28;20389;-94
2022/03/16 06:02:46;;;;;;;21.02;17.42;;;;;;;3.37;92.65;102193.53;5057419;28;20036;-94
2022/03/16 06:05:15;;;;;;;18.73;15.63;;;;;;;3.38;93.68;102189.88;5057963;28;20033;-94
2022/03/16 06:07:41;;;;;;;17.98;15.57;;;;;;;3.45;92.63;102209.81;5059188;28;20032;-95
2022/03/16 06:10:09;;;;;;;22.50;17.02;;;;;;;3.47;93.36;102204.28;5060931;28;20040;-94
2022/03/16 06:13:00;;;;;;;21.13;17.58;;;;;;;3.50;92.44;102204.06;5043405;28;20021;-94
2022/03/16 06:15:28;;;;;;;20.95;17.20;;;;;;;3.61;92.97;102220.03;5063244;28;20021;-95
2022/03/16 06:17:59;;;;;;;20.70;17.95;;;;;;;3.67;92.78;102222.16;5046305;28;20146;-94
2022/03/16 06:20:28;;;;;;;20.20;16.73;;;;;;;3.62;92.48;102210.16;5045313;28;20044;-91
2022/03/16 06:22:54;;;;;;;21.88;17.33;;;;;;;3.73;91.92;102215.41;5061392;28;20032;-94
2022/03/16 06:25:20;;;;;;;20.05;16.70;;;;;;;3.71;92.70;102206.66;5059058;28;20530;-93
2022/03/16 06:27:48;;;;;;;18.70;15.32;;;;;;;3.81;90.38;102214.72;5042109;28;20025;-94
2022/03/16 06:30:18;;;;;;;18.38;15.60;;;;;;;3.88;90.89;102218.56;5045202;28;20033;-94
2022/03/16 06:32:45;;;;;;;20.02;16.63;;;;;;;3.85;91.66;102213.47;5046046;28;20051;-95
2022/03/16 06:35:11;;;;;;;18.90;14.93;;;;;;;3.90;91.39;102207.69;5045624;28;20032;-94
2022/03/16 06:37:37;;;;;;;18.67;14.57;;;;;;;3.88;91.25;102204.28;5047638;28;20044;-94
2022/03/16 06:40:06;;;;;;;18.52;15.35;;;;;;;4.00;90.71;102217.47;5045792;28;20043;-94
2022/03/16 06:42:31;;;;;;;18.60;14.93;;;;;;;3.99;91.26;102205.03;5058242;28;20087;-95
2022/03/16 06:44:57;;;;;;;19.05;15.75;;;;;;;4.02;91.24;102203.91;5058931;28;20028;-95
2022/03/16 06:47:23;;;;;;;19.23;16.13;;;;;;;4.12;91.52;102203.91;5060128;28;20029;-94
2022/03/16 06:49:48;;;;;;;18.70;15.13;;;;;;;4.11;90.46;102191.47;5045494;28;20053;-95
2022/03/16 06:52:14;;;;;;;19.02;15.27;;;;;;;4.26;91.24;102203.50;5046483;28;20397;-95
2022/03/16 06:54:40;;;;;;;18.65;15.13;;;;;;;4.31;91.09;102189.63;5072615;28;20033;-94
2022/03/16 06:57:05;;;;;;;18.92;15.85;;;;;;;4.43;89.55;102190.34;5049344;28;20029;-93
2022/03/16 06:59:31;;;;;;;19.10;15.15;;;;;;;4.45;89.71;102178.47;5044721;28;20035;-94
2022/03/16 07:01:56;;;;;;;17.58;14.88;;;;;;;4.52;90.08;102174.22;5076255;28;20032;-94
2022/03/16 07:04:22;;;;;;;17.27;13.93;;;;;;;4.61;90.29;102169.00;5054765;28;20043;-92
2022/03/16 07:06:49;;;;;;;17.25;14.07;;;;;;;4.71;89.21;102176.03;5076090;28;20033;-94
2022/03/16 07:09:17;;;;;;;18.77;15.52;;;;;;;4.79;88.99;102169.09;5072459;28;20096;-95
2022/03/16 07:11:45;;;;;;;19.73;14.63;;;;;;;4.95;89.41;102180.09;5066911;28;20045;-94
2022/03/16 07:16:55;;;;;;;16.60;13.57;;;;;;;5.23;87.67;102174.75;5060217;28;20483;-94
2022/03/16 07:19:21;;;;;;;18.63;14.02;;;;;;;5.31;87.80;102177.53;5039980;28;20033;-94
2022/03/16 07:21:46;;;;;;;17.40;13.77;;;;;;;5.38;86.79;102167.88;5057836;28;20040;-94
2022/03/16 07:24:12;;;;;;;16.65;12.80;;;;;;;5.53;86.63;102170.94;5040227;28;20461;-94
2022/03/16 07:26:38;;;;;;;14.73;12.40;;;;;;;5.61;86.05;102167.50;5039712;28;20081;-94
2022/03/16 07:29:05;;;;;;;15.13;12.18;;;;;;;5.71;85.96;102157.50;5057515;28;20057;-94
2022/03/16 07:31:30;;;;;;;17.67;13.55;;;;;;;5.82;85.50;102153.78;5039639;28;20136;-94
2022/03/16 07:33:56;;;;;;;17.83;14.07;;;;;;;5.90;84.48;102161.09;5056637;28;20086;-95
2022/03/16 07:36:21;;;;;;;16.13;12.80;;;;;;;5.91;84.55;102152.00;5055718;28;20033;-95
2022/03/16 07:38:47;;;;;;;17.17;12.65;;;;;;;6.00;84.68;102142.19;5056340;28;20029;-95
2022/03/16 07:41:14;;;;;;;15.73;12.18;;;;;;;6.04;84.23;102146.25;5056469;28;20458;-95
2022/03/16 07:43:40;;;;;;;17.80;13.55;;;;;;;6.02;84.10;102138.31;5039205;28;20040;-94
2022/03/16 07:46:07;;;;;;;16.35;12.70;;;;;;;6.10;83.62;102138.41;5023055;28;20040;-95
2022/03/16 07:48:34;;;;;;;17.40;13.82;;;;;;;6.15;83.21;102149.56;5055329;28;20033;-92
2022/03/16 07:51:03;;;;;;;17.58;14.10;;;;;;;6.18;83.27;102143.03;5039028;28;20040;-95
2022/03/16 07:53:57;;;;;;;16.30;13.18;;;;;;;6.26;82.95;102151.19;5056665;28;20033;-95
2022/03/16 07:56:22;;;;;;;16.98;13.40;;;;;;;6.26;82.00;102142.25;5055138;28;20052;-95
2022/03/16 07:58:48;;;;;;;17.17;12.80;;;;;;;6.31;82.22;102139.94;5055261;28;20024;-94
2022/03/16 08:01:14;;;;;;;16.75;12.95;;;;;;;6.39;82.45;102160.72;5055115;28;20071;-95
2022/03/16 08:03:39;;;;;;;16.48;12.73;;;;;;;6.48;82.01;102157.97;5038671;28;20029;-94
2022/03/16 08:06:05;;;;;;;15.63;11.52;;;;;;;6.45;82.23;102152.00;5057734;28;20071;-94
2022/03/16 08:08:31;;;;;;;16.48;12.75;;;;;;;6.43;81.72;102152.16;5054817;28;20074;-95
2022/03/16 08:10:58;;;;;;;17.02;13.38;;;;;;;6.50;81.24;102145.16;5055732;28;20116;-94
2022/03/16 08:13:24;;;;;;;16.38;13.30;;;;;;;6.57;81.49;102161.56;5056283;28;20036;-94
2022/03/16 08:15:50;;;;;;;16.98;12.55;;;;;;;6.58;81.27;102157.00;5038174;28;20033;-95
2022/03/16 08:18:15;;;;;;;19.02;13.85;;;;;;;6.56;81.03;102153.63;5021718;28;20124;-95
2022/03/16 08:20:41;;;;;;;17.23;13.45;;;;;;;6.57;80.92;102144.53;5038990;28;20051;-95
2022/03/16 08:23:09;;;;;;;19.40;14.25;;;;;;;6.72;80.26;102150.19;5054996;28;20044;-94
2022/03/16 08:25:34;;;;;;;17.27;13.25;;;;;;;6.65;80.49;102144.59;5022440;28;20037;-94
2022/03/16 08:28:01;;;;;;;16.90;13.45;;;;;;;6.81;80.26;102146.56;5038434;28;20036;-94
2022/03/16 08:30:29;;;;;;;18.45;13.88;;;;;;;6.85;79.38;102150.63;5057145;28;20039;-94
2022/03/16 08:32:55;;;;;;;17.58;13.80;;;;;;;6.90;79.57;102152.84;5038659;28;20099;-94
2022/03/16 08:35:22;;;;;;;18.75;13.60;;;;;;;6.92;79.56;102140.88;5038324;28;20381;-95
2022/03/16 08:37:48;;;;;;;18.88;13.25;;;;;;;6.93;78.92;102137.19;5040151;28;20040;-94
2022/03/16 08:40:16;;;;;;;15.23;11.95;;;;;;;7.06;79.02;102146.69;5057691;28;20033;-95
2022/03/16 08:42:43;;;;;;;14.82;12.23;;;;;;;7.12;78.80;102149.59;5055427;28;20045;-94
2022/03/16 08:45:09;;;;;;;17.23;12.95;;;;;;;7.24;78.65;102143.94;5022449;28;20033;-94
2022/03/16 08:47:34;;;;;;;16.73;13.02;;;;;;;7.36;77.96;102159.66;5055736;28;20041;-94
2022/03/16 08:50:03;;;;;;;18.38;13.40;;;;;;;7.46;77.58;102162.25;5037220;28;20560;-94
2022/03/16 08:52:30;;;;;;;18.02;13.43;;;;;;;7.46;77.07;102150.59;5055378;28;20029;-94
2022/03/16 08:54:56;;;;;;;20.17;14.90;;;;;;;7.58;76.46;102148.47;5055664;28;20060;-94
2022/03/16 08:57:22;;;;;;;20.02;14.73;;;;;;;7.68;75.95;102159.97;5053631;28;20473;-94
2022/03/16 08:59:48;;;;;;;19.23;14.32;;;;;;;7.71;75.90;102168.59;5056101;28;20092;-94
2022/03/16 09:02:14;;;;;;;20.77;14.93;;;;;;;7.80;75.26;102184.84;5053840;28;20060;-94
2022/03/16 09:04:39;;;;;;;18.88;13.98;;;;;;;7.77;75.06;102164.38;5038138;28;20036;-94
2022/03/16 09:07:05;;;;;;;17.33;12.93;;;;;;;7.83;75.38;102176.41;5037902;28;20094;-94
2022/03/16 09:09:31;;;;;;;18.92;13.68;;;;;;;7.91;75.02;102171.00;5037666;28;20120;-93
2022/03/16 09:11:57;;;;;;;19.17;13.85;;;;;;;8.07;74.50;102178.28;5037545;28;20048;-94
2022/03/16 09:14:23;;;;;;;19.05;14.05;;;;;;;8.09;74.33;102176.28;5037018;28;20442;-94
2022/03/16 09:16:48;;;;;;;17.05;12.45;;;;;;;8.16;74.24;102168.34;5053370;28;20101;-94
2022/03/16 09:19:20;;;;;;;19.55;13.65;;;;;;;8.20;74.00;102162.44;5036762;28;20086;-94
2022/03/16 09:21:49;;;;;;;16.65;12.63;;;;;;;8.34;74.45;102157.38;5054043;28;20032;-94
2022/03/16 09:24:16;;;;;;;18.88;13.68;;;;;;;8.41;73.99;102167.38;5054571;28;20075;-93
2022/03/16 09:26:42;;;;;;;16.45;12.35;;;;;;;8.55;73.57;102157.75;5041455;28;20454;-94
2022/03/16 09:29:09;;;;;;;17.45;13.15;;;;;;;8.55;73.09;102146.09;5041569;28;20064;-94
2022/03/16 09:31:38;;;;;;;18.35;13.27;;;;;;;8.70;72.21;102157.91;5057681;28;20079;-94
2022/03/16 09:34:05;;;;;;;18.00;13.38;;;;;;;8.75;72.30;102146.56;5058756;28;20055;-95
2022/03/16 09:36:35;;;;;;;17.90;13.18;;;;;;;8.79;71.65;102139.78;5041684;28;20553;-93
2022/03/16 09:39:00;;;;;;;17.60;12.50;;;;;;;8.89;71.53;102143.16;5041806;28;20044;-95
2022/03/16 09:41:30;;;;;;;17.80;13.25;;;;;;;9.00;71.17;102149.22;5057292;28;20519;-94
2022/03/16 09:44:39;;;;;;;17.50;12.48;;;;;;;9.18;71.35;102147.13;5040857;28;20036;-94
2022/03/16 09:49:58;;;;;;;16.27;11.95;;;;;;;9.46;70.18;102131.28;5027575;28;20097;-93
2022/03/16 09:52:26;;;;;;;16.85;12.20;;;;;;;9.63;69.82;102140.16;5040930;28;20025;-93
2022/03/16 09:54:53;;;;;;;18.10;13.23;;;;;;;9.71;69.28;102131.13;5057202;28;20059;-94
2022/03/16 09:57:19;;;;;;;16.60;12.30;;;;;;;9.81;69.13;102120.09;5041090;28;20029;-94
2022/03/16 09:59:44;;;;;;;17.90;12.43;;;;;;;10.01;68.34;102139.44;5057420;28;20029;-94
2022/03/16 10:02:15;;;;;;;17.02;12.68;;;;;;;10.19;68.75;102137.25;5058396;28;20040;-94
2022/03/16 10:04:41;;;;;;;17.08;12.85;;;;;;;10.30;67.40;102121.59;5040944;28;20037;-94
2022/03/16 10:07:07;;;;;;;20.48;13.75;;;;;;;10.44;66.83;102125.41;5040656;28;20025;-94
2022/03/16 10:15:10;;;;;;;16.63;11.60;;;;;;;10.93;65.45;102122.19;5058339;28;20060;-94
2022/03/16 10:17:45;;;;;;;14.65;10.88;;;;;;;11.12;65.35;102118.09;5057279;28;20060;-94
2022/03/16 10:20:32;;;;;;;13.13;9.93;;;;;;;11.38;64.81;102122.16;5040763;28;20115;-94
2022/03/16 10:23:01;;;;;;;14.05;10.55;;;;;;;11.60;64.86;102117.63;5056943;28;20128;-94
2022/03/16 10:25:28;;;;;;;12.75;10.07;;;;;;;11.76;62.66;102119.28;5040211;28;20465;-94
2022/03/16 10:28:11;;;;;;;12.10;9.73;;;;;;;11.92;62.87;102115.47;5057528;28;20033;-94
2022/03/16 10:30:38;;;;;;;13.00;9.80;;;;;;;12.05;62.48;102112.91;5056464;28;20037;-94
2022/03/16 10:33:05;;;;;;;12.35;9.60;;;;;;;12.22;61.39;102099.91;5057627;28;20039;-95
2022/03/16 10:35:30;;;;;;;13.52;10.27;;;;;;;12.35;60.70;102106.50;5057080;28;20036;-95
2022/03/16 10:38:14;;;;;;;13.40;10.70;;;;;;;12.57;61.48;102096.41;5039506;28;20051;-94
2022/03/16 10:40:39;;;;;;;10.98;9.15;;;;;;;12.84;59.50;102105.59;5041606;28;20112;-94
2022/03/16 10:49:07;;;;;;;11.25;8.57;;;;;;;13.85;56.63;102098.72;4996455;28;20365;-94
2022/03/16 10:51:33;;;;;;;11.18;8.60;;;;;;;14.08;55.63;102081.94;4996502;28;20042;-93
2022/03/16 10:54:00;;;;;;;10.95;8.88;;;;;;;14.39;55.21;102094.13;4993478;28;20099;-94
2022/03/16 10:56:32;;;;;;;9.65;8.35;;;;;;;14.66;54.39;102102.31;5040242;28;20029;-94
2022/03/16 10:58:59;;;;;;;10.88;8.80;;;;;;;14.87;53.90;102095.78;5056666;28;20104;-94
2022/03/16 11:01:26;;;;;;;11.05;9.00;;;;;;;15.12;54.84;102092.34;5057369;28;20021;-93
2022/03/16 11:03:55;;;;;;;10.35;8.68;;;;;;;15.50;52.82;102094.28;5008907;28;20029;-95
2022/03/16 11:06:21;;;;;;;10.77;8.75;;;;;;;15.84;50.79;102087.63;5058538;28;20044;-94
2022/03/16 11:08:50;;;;;;;11.43;8.75;;;;;;;15.99;51.26;102070.03;5056957;28;20082;-93
2022/03/16 11:14:04;;;;;;;9.15;7.25;;;;;;;16.26;51.01;102087.09;5058359;28;20087;-94
2022/03/16 11:16:32;;;;;;;9.73;7.95;;;;;;;16.46;49.30;102081.44;5055756;28;20082;-94
2022/03/16 11:19:01;;;;;;;8.05;6.93;;;;;;;16.45;48.96;102086.09;5039984;28;20514;-92
2022/03/16 11:21:44;;;;;;;9.57;8.30;;;;;;;16.91;49.10;102091.38;5055767;28;20563;-92
2022/03/16 11:24:17;;;;;;;9.25;8.18;;;;;;;17.93;45.51;102096.19;5057256;28;20447;-91
2022/03/16 11:27:02;;;;;;;;;;;;;;;18.87;46.69;102095.47;5057544;28;20117;-92
2022/03/16 11:29:34;;;;;;;9.32;8.30;;;;;;;19.71;42.92;102098.78;5055582;28;20004;-92
2022/03/16 11:32:11;;;;;;;8.15;7.13;;;;;;;20.89;41.44;102088.91;5040072;28;20040;-92
2022/03/16 11:34:37;;;;;;;7.75;6.78;;;;;;;21.58;37.88;102093.09;5023154;28;20037;-92
2022/03/16 11:37:08;;;;;;;7.72;6.95;;;;;;;22.24;38.63;102099.25;5039499;28;20037;-91
2022/03/16 11:39:47;;;;;;;7.22;6.53;;;;;;;22.99;37.56;102094.78;5056791;28;20469;-91